sensor_id;sensor_type;location;lat;lon;timestamp;temperature;humidity
32706;DHT22;19094;50.972;3.538;2023-07-24T00:00:30;22.30;68.00
32706;DHT22;19094;50.972;3.538;2023-07-24T00:02:56;22.30;68.00
32706;DHT22;19094;50.972;3.538;2023-07-24T00:05:21;22.30;67.90
32706;DHT22;19094;50.972;3.538;2023-07-24T00:07:47;22.30;67.80
32706;DHT22;19094;50.972;3.538;2023-07-24T00:10:13;22.30;67.90
32706;DHT22;19094;50.972;3.538;2023-07-24T00:12:38;22.30;68.20
32706;DHT22;19094;50.972;3.538;2023-07-24T00:15:05;22.30;67.90
32706;DHT22;19094;50.972;3.538;2023-07-24T00:17:30;22.30;68.50
32706;DHT22;19094;50.972;3.538;2023-07-24T00:19:56;22.20;67.90
32706;DHT22;19094;50.972;3.538;2023-07-24T00:22:22;22.30;67.80
32706;DHT22;19094;50.972;3.538;2023-07-24T00:24:47;22.30;68.30
32706;DHT22;19094;50.972;3.538;2023-07-24T00:27:13;22.30;67.60
32706;DHT22;19094;50.972;3.538;2023-07-24T00:29:39;22.30;67.20
32706;DHT22;19094;50.972;3.538;2023-07-24T00:32:05;22.30;67.40
32706;DHT22;19094;50.972;3.538;2023-07-24T00:34:31;22.20;68.40
32706;DHT22;19094;50.972;3.538;2023-07-24T00:36:57;22.20;67.90
32706;DHT22;19094;50.972;3.538;2023-07-24T00:39:22;22.20;68.30
32706;DHT22;19094;50.972;3.538;2023-07-24T00:41:48;22.20;68.10
32706;DHT22;19094;50.972;3.538;2023-07-24T00:44:13;22.20;68.00
32706;DHT22;19094;50.972;3.538;2023-07-24T00:46:39;22.20;68.60
32706;DHT22;19094;50.972;3.538;2023-07-24T00:49:05;22.20;68.30
32706;DHT22;19094;50.972;3.538;2023-07-24T00:51:33;22.10;68.90
32706;DHT22;19094;50.972;3.538;2023-07-24T00:54:01;22.00;68.60
32706;DHT22;19094;50.972;3.538;2023-07-24T00:56:27;22.00;68.20
32706;DHT22;19094;50.972;3.538;2023-07-24T00:58:54;22.00;68.70
32706;DHT22;19094;50.972;3.538;2023-07-24T01:01:24;22.00;68.40
32706;DHT22;19094;50.972;3.538;2023-07-24T01:03:51;21.90;69.30
32706;DHT22;19094;50.972;3.538;2023-07-24T01:06:18;21.90;68.80
32706;DHT22;19094;50.972;3.538;2023-07-24T01:08:43;21.90;69.30
32706;DHT22;19094;50.972;3.538;2023-07-24T01:11:19;21.90;68.70
32706;DHT22;19094;50.972;3.538;2023-07-24T01:14:21;21.90;69.10
32706;DHT22;19094;50.972;3.538;2023-07-24T01:16:41;21.80;69.10
32706;DHT22;19094;50.972;3.538;2023-07-24T01:19:33;21.90;68.60
32706;DHT22;19094;50.972;3.538;2023-07-24T01:22:23;21.90;68.70
32706;DHT22;19094;50.972;3.538;2023-07-24T01:27:34;21.90;68.70
32706;DHT22;19094;50.972;3.538;2023-07-24T01:30:00;21.90;68.50
32706;DHT22;19094;50.972;3.538;2023-07-24T01:32:26;21.90;68.30
32706;DHT22;19094;50.972;3.538;2023-07-24T01:34:52;21.80;68.50
32706;DHT22;19094;50.972;3.538;2023-07-24T01:37:20;21.90;68.60
32706;DHT22;19094;50.972;3.538;2023-07-24T01:39:46;21.90;68.30
32706;DHT22;19094;50.972;3.538;2023-07-24T01:42:13;21.90;68.30
32706;DHT22;19094;50.972;3.538;2023-07-24T01:44:39;21.80;68.30
32706;DHT22;19094;50.972;3.538;2023-07-24T01:47:05;21.80;68.90
32706;DHT22;19094;50.972;3.538;2023-07-24T01:49:31;21.80;68.60
32706;DHT22;19094;50.972;3.538;2023-07-24T01:51:56;21.70;68.90
32706;DHT22;19094;50.972;3.538;2023-07-24T01:54:23;21.80;68.60
32706;DHT22;19094;50.972;3.538;2023-07-24T01:56:48;21.90;68.10
32706;DHT22;19094;50.972;3.538;2023-07-24T01:59:14;21.90;68.60
32706;DHT22;19094;50.972;3.538;2023-07-24T02:01:40;21.90;67.90
32706;DHT22;19094;50.972;3.538;2023-07-24T02:04:06;21.90;68.10
32706;DHT22;19094;50.972;3.538;2023-07-24T02:06:32;21.80;68.40
32706;DHT22;19094;50.972;3.538;2023-07-24T02:08:57;21.80;67.70
32706;DHT22;19094;50.972;3.538;2023-07-24T02:11:23;21.90;68.20
32706;DHT22;19094;50.972;3.538;2023-07-24T02:13:48;21.70;67.90
32706;DHT22;19094;50.972;3.538;2023-07-24T02:16:14;21.70;68.70
32706;DHT22;19094;50.972;3.538;2023-07-24T02:18:43;21.60;68.70
32706;DHT22;19094;50.972;3.538;2023-07-24T02:21:09;21.60;68.40
32706;DHT22;19094;50.972;3.538;2023-07-24T02:23:35;21.60;68.60
32706;DHT22;19094;50.972;3.538;2023-07-24T02:26:01;21.60;68.50
32706;DHT22;19094;50.972;3.538;2023-07-24T02:28:27;21.60;69.00
32706;DHT22;19094;50.972;3.538;2023-07-24T02:30:52;21.60;68.40
32706;DHT22;19094;50.972;3.538;2023-07-24T02:33:22;21.60;68.40
32706;DHT22;19094;50.972;3.538;2023-07-24T02:35:50;21.60;68.70
32706;DHT22;19094;50.972;3.538;2023-07-24T02:38:16;21.60;67.90
32706;DHT22;19094;50.972;3.538;2023-07-24T02:40:44;21.70;68.40
32706;DHT22;19094;50.972;3.538;2023-07-24T02:43:10;21.70;68.30
32706;DHT22;19094;50.972;3.538;2023-07-24T02:45:37;21.70;67.50
32706;DHT22;19094;50.972;3.538;2023-07-24T02:48:03;21.60;68.40
32706;DHT22;19094;50.972;3.538;2023-07-24T02:50:28;21.60;68.20
32706;DHT22;19094;50.972;3.538;2023-07-24T02:52:54;21.60;68.20
32706;DHT22;19094;50.972;3.538;2023-07-24T02:55:20;21.50;68.60
32706;DHT22;19094;50.972;3.538;2023-07-24T02:57:46;21.50;68.50
32706;DHT22;19094;50.972;3.538;2023-07-24T03:00:12;21.50;68.70
32706;DHT22;19094;50.972;3.538;2023-07-24T03:02:38;21.40;68.90
32706;DHT22;19094;50.972;3.538;2023-07-24T03:05:04;21.40;68.70
32706;DHT22;19094;50.972;3.538;2023-07-24T03:07:31;21.50;68.60
32706;DHT22;19094;50.972;3.538;2023-07-24T03:09:57;21.50;68.30
32706;DHT22;19094;50.972;3.538;2023-07-24T03:12:22;21.60;68.50
32706;DHT22;19094;50.972;3.538;2023-07-24T03:14:48;21.50;68.20
32706;DHT22;19094;50.972;3.538;2023-07-24T03:17:14;21.50;68.70
32706;DHT22;19094;50.972;3.538;2023-07-24T03:19:40;21.40;68.60
32706;DHT22;19094;50.972;3.538;2023-07-24T03:22:06;21.40;68.90
32706;DHT22;19094;50.972;3.538;2023-07-24T03:24:33;21.40;68.80
32706;DHT22;19094;50.972;3.538;2023-07-24T03:26:59;21.30;69.20
32706;DHT22;19094;50.972;3.538;2023-07-24T03:29:26;21.30;68.80
32706;DHT22;19094;50.972;3.538;2023-07-24T03:31:51;21.30;69.00
32706;DHT22;19094;50.972;3.538;2023-07-24T03:34:17;21.30;68.80
32706;DHT22;19094;50.972;3.538;2023-07-24T03:36:43;21.30;69.60
32706;DHT22;19094;50.972;3.538;2023-07-24T03:39:12;21.30;68.90
32706;DHT22;19094;50.972;3.538;2023-07-24T03:41:41;21.30;69.10
32706;DHT22;19094;50.972;3.538;2023-07-24T03:44:08;21.30;69.20
32706;DHT22;19094;50.972;3.538;2023-07-24T03:46:34;21.20;69.10
32706;DHT22;19094;50.972;3.538;2023-07-24T03:49:00;21.20;69.20
32706;DHT22;19094;50.972;3.538;2023-07-24T03:51:25;21.20;69.10
32706;DHT22;19094;50.972;3.538;2023-07-24T03:53:51;21.20;69.10
32706;DHT22;19094;50.972;3.538;2023-07-24T03:56:17;21.20;69.10
32706;DHT22;19094;50.972;3.538;2023-07-24T03:58:43;21.10;69.20
32706;DHT22;19094;50.972;3.538;2023-07-24T04:01:09;21.20;69.50
32706;DHT22;19094;50.972;3.538;2023-07-24T04:03:35;21.20;69.10
32706;DHT22;19094;50.972;3.538;2023-07-24T04:06:01;21.20;69.40
32706;DHT22;19094;50.972;3.538;2023-07-24T04:08:27;21.20;69.10
32706;DHT22;19094;50.972;3.538;2023-07-24T04:10:52;21.20;68.70
32706;DHT22;19094;50.972;3.538;2023-07-24T04:13:18;21.20;68.90
32706;DHT22;19094;50.972;3.538;2023-07-24T04:15:44;21.10;68.90
32706;DHT22;19094;50.972;3.538;2023-07-24T04:18:10;21.10;69.10
32706;DHT22;19094;50.972;3.538;2023-07-24T04:20:36;21.10;69.40
32706;DHT22;19094;50.972;3.538;2023-07-24T04:23:02;21.10;69.40
32706;DHT22;19094;50.972;3.538;2023-07-24T04:25:28;21.10;69.40
32706;DHT22;19094;50.972;3.538;2023-07-24T04:27:54;21.10;69.20
32706;DHT22;19094;50.972;3.538;2023-07-24T04:30:20;21.10;69.10
32706;DHT22;19094;50.972;3.538;2023-07-24T04:32:45;21.10;69.20
32706;DHT22;19094;50.972;3.538;2023-07-24T04:35:11;21.10;69.10
32706;DHT22;19094;50.972;3.538;2023-07-24T04:37:37;21.10;69.20
32706;DHT22;19094;50.972;3.538;2023-07-24T04:40:03;21.00;69.20
32706;DHT22;19094;50.972;3.538;2023-07-24T04:42:29;21.10;69.30
32706;DHT22;19094;50.972;3.538;2023-07-24T04:44:54;21.00;69.40
32706;DHT22;19094;50.972;3.538;2023-07-24T04:47:20;21.00;69.20
32706;DHT22;19094;50.972;3.538;2023-07-24T04:49:45;21.00;69.40
32706;DHT22;19094;50.972;3.538;2023-07-24T04:52:11;21.00;69.40
32706;DHT22;19094;50.972;3.538;2023-07-24T04:54:37;21.00;70.40
32706;DHT22;19094;50.972;3.538;2023-07-24T04:57:02;20.90;69.70
32706;DHT22;19094;50.972;3.538;2023-07-24T04:59:28;21.00;69.60
32706;DHT22;19094;50.972;3.538;2023-07-24T05:01:54;21.00;70.00
32706;DHT22;19094;50.972;3.538;2023-07-24T05:04:19;21.00;69.40
32706;DHT22;19094;50.972;3.538;2023-07-24T05:06:45;21.00;69.60
32706;DHT22;19094;50.972;3.538;2023-07-24T05:09:11;21.00;69.50
32706;DHT22;19094;50.972;3.538;2023-07-24T05:11:36;21.00;69.50
32706;DHT22;19094;50.972;3.538;2023-07-24T05:14:02;21.00;69.70
32706;DHT22;19094;50.972;3.538;2023-07-24T05:16:27;21.00;69.70
32706;DHT22;19094;50.972;3.538;2023-07-24T05:18:53;21.00;69.70
32706;DHT22;19094;50.972;3.538;2023-07-24T05:21:19;21.00;69.70
32706;DHT22;19094;50.972;3.538;2023-07-24T05:23:44;21.00;69.80
32706;DHT22;19094;50.972;3.538;2023-07-24T05:26:10;21.00;69.70
32706;DHT22;19094;50.972;3.538;2023-07-24T05:28:35;21.00;69.60
32706;DHT22;19094;50.972;3.538;2023-07-24T05:31:02;21.00;69.70
32706;DHT22;19094;50.972;3.538;2023-07-24T05:33:30;21.00;69.90
32706;DHT22;19094;50.972;3.538;2023-07-24T05:36:00;21.00;70.00
32706;DHT22;19094;50.972;3.538;2023-07-24T05:38:26;21.00;70.10
32706;DHT22;19094;50.972;3.538;2023-07-24T05:40:59;21.00;70.00
32706;DHT22;19094;50.972;3.538;2023-07-24T05:43:25;21.00;69.80
32706;DHT22;19094;50.972;3.538;2023-07-24T05:45:51;21.00;70.30
32706;DHT22;19094;50.972;3.538;2023-07-24T05:48:18;20.90;70.10
32706;DHT22;19094;50.972;3.538;2023-07-24T05:50:43;21.00;70.20
32706;DHT22;19094;50.972;3.538;2023-07-24T05:53:09;21.00;70.20
32706;DHT22;19094;50.972;3.538;2023-07-24T05:55:35;21.00;70.00
32706;DHT22;19094;50.972;3.538;2023-07-24T05:58:01;21.00;70.10
32706;DHT22;19094;50.972;3.538;2023-07-24T06:00:26;21.00;70.10
32706;DHT22;19094;50.972;3.538;2023-07-24T06:02:53;21.00;70.20
32706;DHT22;19094;50.972;3.538;2023-07-24T06:05:19;21.10;70.00
32706;DHT22;19094;50.972;3.538;2023-07-24T06:07:45;21.10;69.60
32706;DHT22;19094;50.972;3.538;2023-07-24T06:10:11;21.10;69.90
32706;DHT22;19094;50.972;3.538;2023-07-24T06:12:37;21.10;69.70
32706;DHT22;19094;50.972;3.538;2023-07-24T06:15:03;21.10;70.20
32706;DHT22;19094;50.972;3.538;2023-07-24T06:17:30;21.10;69.70
32706;DHT22;19094;50.972;3.538;2023-07-24T06:19:56;21.10;69.50
32706;DHT22;19094;50.972;3.538;2023-07-24T06:22:22;21.10;70.00
32706;DHT22;19094;50.972;3.538;2023-07-24T06:24:48;21.10;69.90
32706;DHT22;19094;50.972;3.538;2023-07-24T06:27:13;21.20;69.70
32706;DHT22;19094;50.972;3.538;2023-07-24T06:29:39;21.10;69.70
32706;DHT22;19094;50.972;3.538;2023-07-24T06:32:05;21.20;69.20
32706;DHT22;19094;50.972;3.538;2023-07-24T06:34:31;21.20;69.50
32706;DHT22;19094;50.972;3.538;2023-07-24T06:36:57;21.20;69.70
32706;DHT22;19094;50.972;3.538;2023-07-24T06:39:23;21.20;69.60
32706;DHT22;19094;50.972;3.538;2023-07-24T06:41:50;21.10;70.00
32706;DHT22;19094;50.972;3.538;2023-07-24T06:44:16;21.10;69.80
32706;DHT22;19094;50.972;3.538;2023-07-24T06:46:42;21.10;69.80
32706;DHT22;19094;50.972;3.538;2023-07-24T06:49:07;21.10;69.80
32706;DHT22;19094;50.972;3.538;2023-07-24T06:51:33;21.10;69.60
32706;DHT22;19094;50.972;3.538;2023-07-24T06:53:59;21.10;69.80
32706;DHT22;19094;50.972;3.538;2023-07-24T06:56:24;21.10;69.80
32706;DHT22;19094;50.972;3.538;2023-07-24T06:58:50;21.10;69.80
32706;DHT22;19094;50.972;3.538;2023-07-24T07:01:15;21.10;69.90
32706;DHT22;19094;50.972;3.538;2023-07-24T07:03:41;21.10;69.60
32706;DHT22;19094;50.972;3.538;2023-07-24T07:06:07;21.00;69.90
32706;DHT22;19094;50.972;3.538;2023-07-24T07:08:34;21.00;70.00
32706;DHT22;19094;50.972;3.538;2023-07-24T07:11:00;21.00;69.90
32706;DHT22;19094;50.972;3.538;2023-07-24T07:13:27;21.10;69.90
32706;DHT22;19094;50.972;3.538;2023-07-24T07:15:52;21.10;69.90
32706;DHT22;19094;50.972;3.538;2023-07-24T07:18:18;21.10;70.00
32706;DHT22;19094;50.972;3.538;2023-07-24T07:20:48;21.10;69.90
32706;DHT22;19094;50.972;3.538;2023-07-24T07:23:14;21.10;69.80
32706;DHT22;19094;50.972;3.538;2023-07-24T07:25:40;21.20;69.60
32706;DHT22;19094;50.972;3.538;2023-07-24T07:28:08;21.20;70.00
32706;DHT22;19094;50.972;3.538;2023-07-24T07:30:34;21.20;69.30
32706;DHT22;19094;50.972;3.538;2023-07-24T07:33:00;21.20;69.50
32706;DHT22;19094;50.972;3.538;2023-07-24T07:35:26;21.20;69.60
32706;DHT22;19094;50.972;3.538;2023-07-24T07:37:52;21.30;69.70
32706;DHT22;19094;50.972;3.538;2023-07-24T07:40:18;21.30;69.60
32706;DHT22;19094;50.972;3.538;2023-07-24T07:42:43;21.30;69.70
32706;DHT22;19094;50.972;3.538;2023-07-24T07:45:10;21.30;69.10
32706;DHT22;19094;50.972;3.538;2023-07-24T07:47:36;21.30;69.20
32706;DHT22;19094;50.972;3.538;2023-07-24T07:50:03;21.30;69.10
32706;DHT22;19094;50.972;3.538;2023-07-24T07:52:28;21.30;69.40
32706;DHT22;19094;50.972;3.538;2023-07-24T07:54:54;21.30;69.30
32706;DHT22;19094;50.972;3.538;2023-07-24T07:57:20;21.30;69.50
32706;DHT22;19094;50.972;3.538;2023-07-24T07:59:45;21.30;69.60
32706;DHT22;19094;50.972;3.538;2023-07-24T08:02:11;21.40;69.50
32706;DHT22;19094;50.972;3.538;2023-07-24T08:04:37;21.40;69.20
32706;DHT22;19094;50.972;3.538;2023-07-24T08:07:03;21.40;68.70
32706;DHT22;19094;50.972;3.538;2023-07-24T08:09:28;21.40;69.00
32706;DHT22;19094;50.972;3.538;2023-07-24T08:11:54;21.40;69.20
32706;DHT22;19094;50.972;3.538;2023-07-24T08:14:20;21.40;69.40
32706;DHT22;19094;50.972;3.538;2023-07-24T08:16:48;21.40;69.00
32706;DHT22;19094;50.972;3.538;2023-07-24T08:19:14;21.40;69.20
32706;DHT22;19094;50.972;3.538;2023-07-24T08:21:40;21.50;68.80
32706;DHT22;19094;50.972;3.538;2023-07-24T08:24:06;21.50;69.00
32706;DHT22;19094;50.972;3.538;2023-07-24T08:26:32;21.50;69.10
32706;DHT22;19094;50.972;3.538;2023-07-24T08:28:58;21.50;69.10
32706;DHT22;19094;50.972;3.538;2023-07-24T08:31:23;21.60;68.70
32706;DHT22;19094;50.972;3.538;2023-07-24T08:33:49;21.60;69.00
32706;DHT22;19094;50.972;3.538;2023-07-24T08:36:15;21.60;68.90
32706;DHT22;19094;50.972;3.538;2023-07-24T08:38:41;21.70;68.40
32706;DHT22;19094;50.972;3.538;2023-07-24T08:41:08;21.60;68.10
32706;DHT22;19094;50.972;3.538;2023-07-24T08:43:36;21.70;67.50
32706;DHT22;19094;50.972;3.538;2023-07-24T08:46:02;21.80;67.60
32706;DHT22;19094;50.972;3.538;2023-07-24T08:48:33;21.90;67.90
32706;DHT22;19094;50.972;3.538;2023-07-24T08:51:05;22.00;67.40
32706;DHT22;19094;50.972;3.538;2023-07-24T08:53:36;22.10;67.10
32706;DHT22;19094;50.972;3.538;2023-07-24T08:56:06;22.30;66.30
32706;DHT22;19094;50.972;3.538;2023-07-24T08:58:33;22.40;65.30
32706;DHT22;19094;50.972;3.538;2023-07-24T09:01:00;22.40;65.60
32706;DHT22;19094;50.972;3.538;2023-07-24T09:03:27;22.50;65.40
32706;DHT22;19094;50.972;3.538;2023-07-24T09:05:53;22.60;64.60
32706;DHT22;19094;50.972;3.538;2023-07-24T09:08:32;22.70;64.30
32706;DHT22;19094;50.972;3.538;2023-07-24T09:10:59;22.70;64.30
32706;DHT22;19094;50.972;3.538;2023-07-24T09:13:24;22.80;63.60
32706;DHT22;19094;50.972;3.538;2023-07-24T09:15:50;22.90;64.00
32706;DHT22;19094;50.972;3.538;2023-07-24T09:18:16;22.90;63.00
32706;DHT22;19094;50.972;3.538;2023-07-24T09:20:44;23.00;63.10
32706;DHT22;19094;50.972;3.538;2023-07-24T09:23:11;23.00;63.90
32706;DHT22;19094;50.972;3.538;2023-07-24T09:25:38;23.00;62.20
32706;DHT22;19094;50.972;3.538;2023-07-24T09:28:15;23.00;62.20
32706;DHT22;19094;50.972;3.538;2023-07-24T09:30:41;23.10;61.40
32706;DHT22;19094;50.972;3.538;2023-07-24T09:33:09;23.10;61.00
32706;DHT22;19094;50.972;3.538;2023-07-24T09:35:35;23.10;61.20
32706;DHT22;19094;50.972;3.538;2023-07-24T09:38:11;23.10;61.00
32706;DHT22;19094;50.972;3.538;2023-07-24T09:40:41;23.20;61.30
32706;DHT22;19094;50.972;3.538;2023-07-24T09:43:23;23.20;61.30
32706;DHT22;19094;50.972;3.538;2023-07-24T09:45:50;23.20;60.00
32706;DHT22;19094;50.972;3.538;2023-07-24T09:48:17;23.30;60.40
32706;DHT22;19094;50.972;3.538;2023-07-24T09:50:48;23.30;59.90
32706;DHT22;19094;50.972;3.538;2023-07-24T09:53:33;23.30;60.00
32706;DHT22;19094;50.972;3.538;2023-07-24T09:56:04;23.30;59.50
32706;DHT22;19094;50.972;3.538;2023-07-24T09:58:33;23.30;60.10
32706;DHT22;19094;50.972;3.538;2023-07-24T10:01:02;23.30;60.40
32706;DHT22;19094;50.972;3.538;2023-07-24T10:03:28;23.30;60.00
32706;DHT22;19094;50.972;3.538;2023-07-24T10:05:54;23.30;59.20
32706;DHT22;19094;50.972;3.538;2023-07-24T10:08:20;23.30;59.00
32706;DHT22;19094;50.972;3.538;2023-07-24T10:10:46;23.30;59.30
32706;DHT22;19094;50.972;3.538;2023-07-24T10:13:13;23.30;59.30
32706;DHT22;19094;50.972;3.538;2023-07-24T10:15:43;23.30;59.30
32706;DHT22;19094;50.972;3.538;2023-07-24T10:18:10;23.40;59.30
32706;DHT22;19094;50.972;3.538;2023-07-24T10:20:40;23.40;59.30
32706;DHT22;19094;50.972;3.538;2023-07-24T10:23:08;23.40;59.40
32706;DHT22;19094;50.972;3.538;2023-07-24T10:25:35;23.40;59.00
32706;DHT22;19094;50.972;3.538;2023-07-24T10:28:06;23.40;59.10
32706;DHT22;19094;50.972;3.538;2023-07-24T10:30:36;23.50;59.30
32706;DHT22;19094;50.972;3.538;2023-07-24T10:33:29;23.50;58.80
32706;DHT22;19094;50.972;3.538;2023-07-24T10:36:05;23.50;58.60
32706;DHT22;19094;50.972;3.538;2023-07-24T10:38:37;23.50;58.70
32706;DHT22;19094;50.972;3.538;2023-07-24T10:41:04;23.50;58.60
32706;DHT22;19094;50.972;3.538;2023-07-24T10:43:49;23.50;58.90
32706;DHT22;19094;50.972;3.538;2023-07-24T10:46:17;23.50;58.70
32706;DHT22;19094;50.972;3.538;2023-07-24T10:48:46;23.50;59.10
32706;DHT22;19094;50.972;3.538;2023-07-24T10:51:12;23.60;58.80
32706;DHT22;19094;50.972;3.538;2023-07-24T10:53:45;23.60;58.70
32706;DHT22;19094;50.972;3.538;2023-07-24T10:56:11;23.60;58.90
32706;DHT22;19094;50.972;3.538;2023-07-24T10:58:37;23.70;58.40
32706;DHT22;19094;50.972;3.538;2023-07-24T11:01:04;23.70;58.60
32706;DHT22;19094;50.972;3.538;2023-07-24T11:03:30;23.60;58.50
32706;DHT22;19094;50.972;3.538;2023-07-24T11:05:57;23.70;58.50
32706;DHT22;19094;50.972;3.538;2023-07-24T11:08:23;23.70;58.50
32706;DHT22;19094;50.972;3.538;2023-07-24T11:10:51;23.70;58.00
32706;DHT22;19094;50.972;3.538;2023-07-24T11:13:19;23.70;58.00
32706;DHT22;19094;50.972;3.538;2023-07-24T11:15:47;23.80;58.10
32706;DHT22;19094;50.972;3.538;2023-07-24T11:18:13;23.70;58.00
32706;DHT22;19094;50.972;3.538;2023-07-24T11:20:44;23.70;57.90
32706;DHT22;19094;50.972;3.538;2023-07-24T11:23:11;23.70;57.90
32706;DHT22;19094;50.972;3.538;2023-07-24T11:25:37;23.70;57.90
32706;DHT22;19094;50.972;3.538;2023-07-24T11:28:08;23.70;58.10
32706;DHT22;19094;50.972;3.538;2023-07-24T11:30:34;23.70;58.20
32706;DHT22;19094;50.972;3.538;2023-07-24T11:33:02;23.70;58.20
32706;DHT22;19094;50.972;3.538;2023-07-24T11:35:28;23.70;58.20
32706;DHT22;19094;50.972;3.538;2023-07-24T11:37:53;23.70;58.50
32706;DHT22;19094;50.972;3.538;2023-07-24T11:40:19;23.70;58.30
32706;DHT22;19094;50.972;3.538;2023-07-24T11:42:47;23.60;58.90
32706;DHT22;19094;50.972;3.538;2023-07-24T11:45:13;23.70;58.40
32706;DHT22;19094;50.972;3.538;2023-07-24T11:47:57;23.70;58.60
32706;DHT22;19094;50.972;3.538;2023-07-24T11:50:23;23.70;58.60
32706;DHT22;19094;50.972;3.538;2023-07-24T11:52:51;23.70;58.50
32706;DHT22;19094;50.972;3.538;2023-07-24T11:55:19;23.80;58.20
32706;DHT22;19094;50.972;3.538;2023-07-24T11:58:01;23.70;58.00
32706;DHT22;19094;50.972;3.538;2023-07-24T12:00:32;23.80;58.30
32706;DHT22;19094;50.972;3.538;2023-07-24T12:02:59;23.80;58.10
32706;DHT22;19094;50.972;3.538;2023-07-24T12:05:25;23.90;58.60
32706;DHT22;19094;50.972;3.538;2023-07-24T12:07:54;23.90;60.00
32706;DHT22;19094;50.972;3.538;2023-07-24T12:10:27;23.90;58.60
32706;DHT22;19094;50.972;3.538;2023-07-24T12:12:54;24.00;58.20
32706;DHT22;19094;50.972;3.538;2023-07-24T12:15:20;24.10;57.80
32706;DHT22;19094;50.972;3.538;2023-07-24T12:17:45;24.20;57.50
32706;DHT22;19094;50.972;3.538;2023-07-24T12:20:11;24.30;57.30
32706;DHT22;19094;50.972;3.538;2023-07-24T12:22:38;24.30;56.70
32706;DHT22;19094;50.972;3.538;2023-07-24T12:25:05;24.30;57.00
32706;DHT22;19094;50.972;3.538;2023-07-24T12:27:31;24.30;56.60
32706;DHT22;19094;50.972;3.538;2023-07-24T12:29:57;24.30;56.50
32706;DHT22;19094;50.972;3.538;2023-07-24T12:32:23;24.40;56.40
32706;DHT22;19094;50.972;3.538;2023-07-24T12:34:51;24.50;57.00
32706;DHT22;19094;50.972;3.538;2023-07-24T12:37:17;24.60;56.10
32706;DHT22;19094;50.972;3.538;2023-07-24T12:39:47;24.70;56.00
32706;DHT22;19094;50.972;3.538;2023-07-24T12:42:13;24.70;55.30
32706;DHT22;19094;50.972;3.538;2023-07-24T12:44:39;24.70;55.00
32706;DHT22;19094;50.972;3.538;2023-07-24T12:47:05;24.80;55.00
32706;DHT22;19094;50.972;3.538;2023-07-24T12:49:31;24.90;55.20
32706;DHT22;19094;50.972;3.538;2023-07-24T12:51:57;24.90;54.70
32706;DHT22;19094;50.972;3.538;2023-07-24T12:54:23;25.00;54.60
32706;DHT22;19094;50.972;3.538;2023-07-24T12:56:51;25.00;54.50
32706;DHT22;19094;50.972;3.538;2023-07-24T12:59:17;25.10;54.10
32706;DHT22;19094;50.972;3.538;2023-07-24T13:01:43;25.10;53.90
32706;DHT22;19094;50.972;3.538;2023-07-24T13:04:09;25.10;54.00
32706;DHT22;19094;50.972;3.538;2023-07-24T13:06:35;25.10;53.90
32706;DHT22;19094;50.972;3.538;2023-07-24T13:09:00;25.10;54.10
32706;DHT22;19094;50.972;3.538;2023-07-24T13:11:26;25.00;54.40
32706;DHT22;19094;50.972;3.538;2023-07-24T13:13:54;24.80;54.80
32706;DHT22;19094;50.972;3.538;2023-07-24T13:16:20;24.70;55.10
32706;DHT22;19094;50.972;3.538;2023-07-24T13:18:45;24.60;55.30
32706;DHT22;19094;50.972;3.538;2023-07-24T13:21:11;24.50;55.60
32706;DHT22;19094;50.972;3.538;2023-07-24T13:23:37;24.40;56.60
32706;DHT22;19094;50.972;3.538;2023-07-24T13:26:03;24.30;56.90
32706;DHT22;19094;50.972;3.538;2023-07-24T13:28:29;24.20;56.30
32706;DHT22;19094;50.972;3.538;2023-07-24T13:30:55;24.10;56.70
32706;DHT22;19094;50.972;3.538;2023-07-24T13:33:21;24.10;56.90
32706;DHT22;19094;50.972;3.538;2023-07-24T13:35:48;24.00;57.20
32706;DHT22;19094;50.972;3.538;2023-07-24T13:38:14;23.90;58.00
32706;DHT22;19094;50.972;3.538;2023-07-24T13:40:40;23.90;59.40
32706;DHT22;19094;50.972;3.538;2023-07-24T13:43:06;23.80;58.60
32706;DHT22;19094;50.972;3.538;2023-07-24T13:45:31;23.80;58.10
32706;DHT22;19094;50.972;3.538;2023-07-24T13:47:57;23.70;58.80
32706;DHT22;19094;50.972;3.538;2023-07-24T13:50:27;23.70;58.60
32706;DHT22;19094;50.972;3.538;2023-07-24T13:52:53;23.70;59.30
32706;DHT22;19094;50.972;3.538;2023-07-24T13:55:19;23.70;59.30
32706;DHT22;19094;50.972;3.538;2023-07-24T13:57:44;23.60;58.50
32706;DHT22;19094;50.972;3.538;2023-07-24T14:00:10;23.60;59.30
32706;DHT22;19094;50.972;3.538;2023-07-24T14:02:36;23.60;59.10
32706;DHT22;19094;50.972;3.538;2023-07-24T14:05:02;23.60;59.50
32706;DHT22;19094;50.972;3.538;2023-07-24T14:07:28;23.50;60.00
32706;DHT22;19094;50.972;3.538;2023-07-24T14:09:53;23.50;59.70
32706;DHT22;19094;50.972;3.538;2023-07-24T14:12:19;23.50;59.20
32706;DHT22;19094;50.972;3.538;2023-07-24T14:14:45;23.50;59.20
32706;DHT22;19094;50.972;3.538;2023-07-24T14:17:10;23.50;59.20
32706;DHT22;19094;50.972;3.538;2023-07-24T14:19:36;23.50;59.00
32706;DHT22;19094;50.972;3.538;2023-07-24T14:22:02;23.70;58.90
32706;DHT22;19094;50.972;3.538;2023-07-24T14:24:28;23.70;58.50
32706;DHT22;19094;50.972;3.538;2023-07-24T14:26:53;23.90;58.20
32706;DHT22;19094;50.972;3.538;2023-07-24T14:29:19;24.00;57.80
32706;DHT22;19094;50.972;3.538;2023-07-24T14:31:45;24.10;57.80
32706;DHT22;19094;50.972;3.538;2023-07-24T14:34:10;24.10;57.00
32706;DHT22;19094;50.972;3.538;2023-07-24T14:36:38;24.10;56.70
32706;DHT22;19094;50.972;3.538;2023-07-24T14:39:04;24.20;57.50
32706;DHT22;19094;50.972;3.538;2023-07-24T14:41:30;24.20;56.90
32706;DHT22;19094;50.972;3.538;2023-07-24T14:43:56;24.30;57.00
32706;DHT22;19094;50.972;3.538;2023-07-24T14:46:21;24.30;56.80
32706;DHT22;19094;50.972;3.538;2023-07-24T14:48:47;24.30;56.80
32706;DHT22;19094;50.972;3.538;2023-07-24T14:51:13;24.30;57.10
32706;DHT22;19094;50.972;3.538;2023-07-24T14:53:39;24.20;56.70
32706;DHT22;19094;50.972;3.538;2023-07-24T14:56:04;24.20;56.50
32706;DHT22;19094;50.972;3.538;2023-07-24T14:58:30;24.10;56.60
32706;DHT22;19094;50.972;3.538;2023-07-24T15:00:56;24.10;56.70
32706;DHT22;19094;50.972;3.538;2023-07-24T15:03:22;24.10;57.10
32706;DHT22;19094;50.972;3.538;2023-07-24T15:05:48;24.00;57.20
32706;DHT22;19094;50.972;3.538;2023-07-24T15:08:14;24.00;57.40
32706;DHT22;19094;50.972;3.538;2023-07-24T15:10:40;24.00;57.20
32706;DHT22;19094;50.972;3.538;2023-07-24T15:13:05;23.90;57.20
32706;DHT22;19094;50.972;3.538;2023-07-24T15:15:31;23.90;57.10
32706;DHT22;19094;50.972;3.538;2023-07-24T15:17:59;23.90;57.10
32706;DHT22;19094;50.972;3.538;2023-07-24T15:20:24;24.00;57.10
32706;DHT22;19094;50.972;3.538;2023-07-24T15:22:50;24.10;56.80
32706;DHT22;19094;50.972;3.538;2023-07-24T15:25:19;24.20;56.60
32706;DHT22;19094;50.972;3.538;2023-07-24T15:27:44;24.20;56.40
32706;DHT22;19094;50.972;3.538;2023-07-24T15:30:10;24.30;56.20